Time;durP1;ratioP1;P1;durP2;ratioP2;P2;SDS_P1;SDS_P2;PMS_P1;PMS_P2;Temp;Humidity;BMP_temperature;BMP_pressure;BME280_temperature;BME280_humidity;BME280_pressure;Samples;Min_cycle;Max_cycle;Signal;HPM_P1;HPM_P2
2022/05/19 00:02:23;;;;;;;3.63;2.03;;;22.10;79.70;;;;;;5116278;28;20019;-67
2022/05/19 00:04:49;;;;;;;3.90;2.47;;;22.10;80.00;;;;;;5115801;28;20031;-66
2022/05/19 00:07:15;;;;;;;2.90;2.25;;;22.00;79.90;;;;;;5115845;28;20063;-66
2022/05/19 00:09:41;;;;;;;4.13;2.28;;;22.00;80.40;;;;;;5116017;28;20026;-66
2022/05/19 00:12:09;;;;;;;;;;;22.00;80.40;;;;;;5116095;28;20016;-66
2022/05/19 00:14:35;;;;;;;4.43;2.33;;;22.00;80.50;;;;;;5115796;28;19904;-66
2022/05/19 00:17:01;;;;;;;3.20;2.33;;;21.90;80.70;;;;;;5115728;28;20097;-66
2022/05/19 00:19:26;;;;;;;3.70;2.20;;;21.90;80.70;;;;;;5116159;28;20071;-66
2022/05/19 00:21:52;;;;;;;4.65;2.60;;;21.80;80.80;;;;;;5115604;28;20488;-66
2022/05/19 00:24:18;;;;;;;3.97;2.30;;;21.80;80.90;;;;;;5115286;28;20028;-67
2022/05/19 00:26:44;;;;;;;3.13;1.85;;;21.90;81.40;;;;;;5115918;28;20397;-66
2022/05/19 00:29:09;;;;;;;3.35;2.03;;;21.80;81.10;;;;;;5098201;28;20466;-66
2022/05/19 00:31:35;;;;;;;2.70;2.15;;;21.70;81.30;;;;;;5117387;28;20534;-66
2022/05/19 00:34:02;;;;;;;3.60;2.10;;;21.70;81.70;;;;;;5116597;28;20028;-67
2022/05/19 00:36:28;;;;;;;4.18;2.17;;;21.60;81.90;;;;;;5116516;28;20062;-67
2022/05/19 00:38:54;;;;;;;5.43;2.38;;;21.60;81.80;;;;;;5116269;28;20076;-66
2022/05/19 00:41:20;;;;;;;;;;;21.60;81.70;;;;;;5116167;28;20106;-66
2022/05/19 00:44:02;;;;;;;3.70;2.17;;;21.50;82.00;;;;;;5114980;28;19947;-66
2022/05/19 00:46:46;;;;;;;6.78;2.70;;;21.50;81.80;;;;;;5115253;28;20016;-66
2022/05/19 00:49:14;;;;;;;5.32;2.22;;;21.50;81.90;;;;;;5114640;28;20093;-66
2022/05/19 00:52:07;;;;;;;3.60;2.42;;;21.50;81.90;;;;;;5115276;28;20026;-66
2022/05/19 00:54:39;;;;;;;3.70;1.88;;;21.40;82.60;;;;;;5096618;28;20127;-66
2022/05/19 00:57:20;;;;;;;2.33;2.00;;;21.40;81.90;;;;;;5114532;28;20532;-66
2022/05/19 00:59:53;;;;;;;4.20;2.42;;;21.40;81.80;;;;;;5095593;28;20378;-67
2022/05/19 01:02:25;;;;;;;5.90;2.40;;;21.40;81.80;;;;;;5115219;28;20019;-67
2022/05/19 01:04:59;;;;;;;3.15;2.22;;;21.40;81.50;;;;;;5096729;28;20511;-67
2022/05/19 01:07:35;;;;;;;2.63;2.10;;;21.40;81.50;;;;;;5114980;28;20034;-67
2022/05/19 01:10:03;;;;;;;4.75;2.00;;;21.40;81.50;;;;;;5114749;28;20098;-67
2022/05/19 01:12:29;;;;;;;2.70;2.00;;;21.40;81.70;;;;;;5114985;28;20032;-67
2022/05/19 01:14:55;;;;;;;6.43;2.53;;;21.30;81.40;;;;;;5114411;28;20042;-66
2022/05/19 01:17:22;;;;;;;2.55;2.28;;;21.30;81.60;;;;;;5114727;28;20086;-67
2022/05/19 01:20:00;;;;;;;2.65;2.10;;;21.30;81.80;;;;;;5114503;28;20096;-67
2022/05/19 01:22:52;;;;;;;2.63;2.08;;;21.20;81.90;;;;;;5114529;28;20024;-66
2022/05/19 01:25:32;;;;;;;3.58;1.80;;;21.20;82.10;;;;;;5114941;28;20049;-67
2022/05/19 01:27:58;;;;;;;3.75;2.05;;;21.20;82.40;;;;;;5096106;28;20020;-67
2022/05/19 01:30:24;;;;;;;3.65;2.30;;;21.10;82.60;;;;;;5095833;28;20027;-67
2022/05/19 01:32:55;;;;;;;4.45;2.33;;;21.00;83.20;;;;;;5113837;28;20023;-67
2022/05/19 01:35:21;;;;;;;3.30;2.30;;;21.00;83.70;;;;;;5096072;28;20122;-67
2022/05/19 01:37:47;;;;;;;;;;;20.90;83.80;;;;;;5114845;28;20030;-67
2022/05/19 01:40:25;;;;;;;2.30;1.85;;;20.80;84.10;;;;;;5114433;28;20002;-67
2022/05/19 01:43:28;;;;;;;4.40;2.00;;;20.80;84.80;;;;;;5114084;28;20449;-67
2022/05/19 01:46:09;;;;;;;3.92;2.47;;;20.70;85.00;;;;;;5114291;28;20023;-67
2022/05/19 01:48:45;;;;;;;4.25;2.20;;;20.70;85.10;;;;;;5095765;28;20026;-67
2022/05/19 01:51:26;;;;;;;2.83;2.15;;;20.60;85.30;;;;;;5113884;28;20051;-67
2022/05/19 01:54:19;;;;;;;3.30;2.38;;;20.50;85.60;;;;;;5113979;28;20027;-67
2022/05/19 01:57:02;;;;;;;3.85;2.00;;;20.50;86.10;;;;;;5114414;28;20047;-67
2022/05/19 01:59:53;;;;;;;4.72;1.88;;;20.40;86.30;;;;;;5113928;28;20457;-67
2022/05/19 02:02:29;;;;;;;3.00;2.10;;;20.40;86.60;;;;;;5113933;28;20028;-67
2022/05/19 02:05:19;;;;;;;2.85;2.20;;;20.30;86.80;;;;;;5114136;28;20031;-67
2022/05/19 02:07:49;;;;;;;3.75;2.33;;;20.30;87.00;;;;;;5114438;28;20019;-67
2022/05/19 02:10:25;;;;;;;3.05;2.75;;;20.20;87.10;;;;;;5097984;28;20076;-67
2022/05/19 02:12:51;;;;;;;6.95;2.58;;;20.20;87.20;;;;;;5117840;28;20027;-67
2022/05/19 02:15:20;;;;;;;4.97;2.20;;;20.20;87.40;;;;;;5117459;28;20023;-67
2022/05/19 02:17:47;;;;;;;3.75;2.22;;;20.20;87.70;;;;;;5117945;28;20024;-67
2022/05/19 02:20:18;;;;;;;3.70;2.30;;;20.10;87.60;;;;;;5117895;28;20436;-67
2022/05/19 02:22:45;;;;;;;4.03;1.98;;;20.10;87.70;;;;;;5117895;28;20031;-67
2022/05/19 02:25:23;;;;;;;3.63;2.17;;;20.10;87.90;;;;;;5099996;28;20052;-67
2022/05/19 02:27:57;;;;;;;3.05;2.25;;;20.10;88.10;;;;;;5118107;28;20471;-67
2022/05/19 02:30:29;;;;;;;4.55;2.28;;;20.00;88.00;;;;;;5117365;28;20047;-67
2022/05/19 02:32:55;;;;;;;4.15;1.92;;;20.00;88.10;;;;;;5099075;28;20023;-67
2022/05/19 02:35:21;;;;;;;4.22;2.47;;;20.00;88.30;;;;;;5116472;28;20036;-67
2022/05/19 02:37:47;;;;;;;2.95;2.53;;;20.00;88.20;;;;;;5117047;28;20110;-67
2022/05/19 02:40:15;;;;;;;4.85;2.30;;;20.00;88.10;;;;;;5117303;28;20032;-67
2022/05/19 02:42:41;;;;;;;3.90;2.22;;;20.00;88.20;;;;;;5117270;28;20016;-67
2022/05/19 02:45:07;;;;;;;2.80;2.35;;;19.90;88.20;;;;;;5117117;28;20023;-66
2022/05/19 02:47:33;;;;;;;3.28;1.75;;;19.90;88.20;;;;;;5117081;28;20031;-67
2022/05/19 02:49:59;;;;;;;3.08;2.17;;;19.90;88.20;;;;;;5098987;28;20351;-67
2022/05/19 02:52:24;;;;;;;5.40;2.47;;;19.90;88.80;;;;;;5117315;28;20028;-67
2022/05/19 02:54:50;;;;;;;3.30;2.22;;;19.90;88.40;;;;;;5117257;28;20124;-67
2022/05/19 02:57:15;;;;;;;4.10;2.20;;;19.90;88.60;;;;;;5117576;28;20107;-67
2022/05/19 02:59:42;;;;;;;3.92;2.03;;;19.90;88.60;;;;;;5098774;28;20050;-67
2022/05/19 03:02:08;;;;;;;2.65;2.05;;;19.90;88.60;;;;;;5117210;28;20076;-68
2022/05/19 03:04:34;;;;;;;3.85;2.20;;;19.90;88.90;;;;;;5117400;28;20027;-67
2022/05/19 03:06:59;;;;;;;3.78;2.25;;;19.80;88.80;;;;;;5117315;28;20037;-68
2022/05/19 03:09:25;;;;;;;5.20;2.20;;;19.80;89.00;;;;;;5116900;28;20102;-68
2022/05/19 03:11:51;;;;;;;2.25;1.80;;;19.70;89.70;;;;;;5117250;28;20039;-65
2022/05/19 03:14:16;;;;;;;4.13;2.47;;;19.70;89.30;;;;;;5116662;28;20019;-67
2022/05/19 03:16:42;;;;;;;4.93;2.08;;;19.70;89.40;;;;;;5116707;28;20046;-67
2022/05/19 03:19:09;;;;;;;2.75;1.88;;;19.70;89.50;;;;;;5098171;28;20031;-65
2022/05/19 03:21:35;;;;;;;2.97;2.33;;;19.70;89.70;;;;;;5116175;28;20031;-66
2022/05/19 03:24:01;;;;;;;;;;;19.60;89.70;;;;;;5117006;28;20051;-66
2022/05/19 03:26:26;;;;;;;5.63;2.35;;;19.60;90.00;;;;;;5116669;28;19961;-66
2022/05/19 03:28:52;;;;;;;5.30;2.00;;;19.60;90.10;;;;;;5116530;28;20034;-66
2022/05/19 03:31:18;;;;;;;3.33;2.08;;;19.50;90.20;;;;;;5117224;28;20100;-66
2022/05/19 03:33:43;;;;;;;4.03;1.90;;;19.50;90.20;;;;;;5098084;28;20020;-66
2022/05/19 03:36:10;;;;;;;3.58;2.13;;;19.50;90.20;;;;;;5116158;28;20035;-66
2022/05/19 03:38:36;;;;;;;3.60;2.10;;;19.50;90.40;;;;;;5116266;28;20394;-66
2022/05/19 03:41:02;;;;;;;3.03;2.28;;;19.50;90.50;;;;;;5100649;28;20020;-66
2022/05/19 03:43:27;;;;;;;4.32;2.22;;;19.40;90.60;;;;;;5120102;28;20505;-68
2022/05/19 03:45:53;;;;;;;4.00;2.22;;;19.50;90.70;;;;;;5117511;28;20024;-67
2022/05/19 03:48:19;;;;;;;3.97;2.13;;;19.40;90.60;;;;;;5116942;28;20027;-67
2022/05/19 03:50:48;;;;;;;2.78;2.03;;;19.40;90.70;;;;;;5117331;28;20449;-66
2022/05/19 03:53:15;;;;;;;3.05;1.98;;;19.40;90.80;;;;;;5115334;28;20072;-66
2022/05/19 03:55:41;;;;;;;4.00;2.17;;;19.40;90.80;;;;;;5115530;28;20103;-67
2022/05/19 03:58:06;;;;;;;2.78;2.00;;;19.40;90.80;;;;;;5115529;28;20115;-66
2022/05/19 04:00:33;;;;;;;4.70;2.20;;;19.40;90.80;;;;;;5114880;28;20052;-66
2022/05/19 04:02:59;;;;;;;4.03;2.00;;;19.40;90.80;;;;;;5115534;28;20022;-66
2022/05/19 04:05:26;;;;;;;3.45;2.10;;;19.40;90.60;;;;;;5096708;28;20030;-66
2022/05/19 04:07:52;;;;;;;2.95;2.17;;;19.40;90.60;;;;;;5096937;28;20023;-66
2022/05/19 04:10:18;;;;;;;2.65;1.88;;;19.40;90.50;;;;;;5115221;28;20022;-66
2022/05/19 04:12:44;;;;;;;3.67;2.10;;;19.40;90.60;;;;;;5115241;28;20099;-66
2022/05/19 04:15:10;;;;;;;3.25;2.22;;;19.40;90.70;;;;;;5115583;28;20080;-67
2022/05/19 04:17:36;;;;;;;2.90;2.00;;;19.40;90.90;;;;;;5114545;28;20106;-66
2022/05/19 04:20:07;;;;;;;4.13;2.53;;;19.40;90.80;;;;;;5115073;28;20062;-67
2022/05/19 04:22:32;;;;;;;2.97;2.00;;;19.40;90.90;;;;;;5096818;28;20031;-67
2022/05/19 04:25:00;;;;;;;3.90;2.08;;;19.40;90.80;;;;;;5114585;28;20051;-66
2022/05/19 04:27:27;;;;;;;6.88;2.58;;;19.40;91.00;;;;;;5114536;28;20512;-66
2022/05/19 04:29:54;;;;;;;5.65;2.40;;;19.40;90.90;;;;;;5114269;28;20071;-67
2022/05/19 04:32:19;;;;;;;4.45;2.45;;;19.50;90.90;;;;;;5114117;28;20110;-67
2022/05/19 04:34:45;;;;;;;3.75;1.98;;;19.50;90.80;;;;;;5115374;28;20023;-67
2022/05/19 04:37:11;;;;;;;3.72;2.03;;;19.50;91.00;;;;;;5116554;28;20386;-67
2022/05/19 04:39:37;;;;;;;3.03;2.00;;;19.50;90.70;;;;;;5097161;28;20035;-66
2022/05/19 04:42:10;;;;;;;;;;;19.60;90.80;;;;;;5095549;28;20028;-67
2022/05/19 04:44:36;;;;;;;4.03;2.20;;;19.50;90.60;;;;;;5096097;28;19938;-66
2022/05/19 04:47:02;;;;;;;3.22;2.00;;;19.50;90.80;;;;;;5114786;28;20077;-66
2022/05/19 04:49:28;;;;;;;5.53;2.03;;;19.50;90.90;;;;;;5114722;28;20431;-67
2022/05/19 04:51:54;;;;;;;3.78;2.25;;;19.60;90.60;;;;;;5096812;28;20026;-68
2022/05/19 04:54:20;;;;;;;5.57;2.33;;;19.60;90.80;;;;;;5115604;28;20328;-66
2022/05/19 04:56:46;;;;;;;3.28;2.10;;;19.60;91.00;;;;;;5117184;28;20084;-66
2022/05/19 04:59:14;;;;;;;3.67;2.33;;;19.60;90.50;;;;;;5115127;28;20040;-69
2022/05/19 05:01:45;;;;;;;3.10;2.17;;;19.60;90.40;;;;;;5095814;28;20068;-65
2022/05/19 05:04:12;;;;;;;4.15;1.95;;;19.70;90.80;;;;;;5113642;28;20122;-66
2022/05/19 05:06:37;;;;;;;4.82;2.33;;;19.70;90.80;;;;;;5113730;28;20024;-67
2022/05/19 05:09:04;;;;;;;3.80;2.28;;;19.70;90.70;;;;;;5114055;28;20042;-66
2022/05/19 05:11:30;;;;;;;6.20;2.28;;;19.70;91.20;;;;;;5113921;28;20110;-66
2022/05/19 05:13:56;;;;;;;4.30;1.90;;;19.70;91.30;;;;;;5113818;28;20501;-66
2022/05/19 05:16:21;;;;;;;4.70;2.15;;;19.70;90.40;;;;;;5097281;28;20126;-66
2022/05/19 05:18:47;;;;;;;5.55;2.15;;;19.70;90.70;;;;;;5114581;28;20058;-66
2022/05/19 05:21:13;;;;;;;4.55;2.08;;;19.80;90.50;;;;;;5097836;28;20493;-67
2022/05/19 05:23:40;;;;;;;5.72;2.88;;;19.80;90.20;;;;;;5096726;28;20028;-67
2022/05/19 05:26:06;;;;;;;4.90;2.20;;;19.80;90.30;;;;;;5113993;28;20106;-67
2022/05/19 05:28:32;;;;;;;4.47;2.38;;;19.90;92.00;;;;;;5095634;28;20069;-67
2022/05/19 05:30:58;;;;;;;5.53;2.60;;;19.90;90.50;;;;;;5114601;28;20103;-67
2022/05/19 05:33:24;;;;;;;8.40;2.45;;;20.00;91.50;;;;;;5113402;28;20067;-66
2022/05/19 05:35:50;;;;;;;6.63;2.33;;;20.10;90.70;;;;;;5113881;28;20027;-66
2022/05/19 05:38:15;;;;;;;3.88;2.10;;;20.10;90.20;;;;;;5114379;28;20543;-67
2022/05/19 05:40:41;;;;;;;4.25;2.33;;;20.20;90.20;;;;;;5113969;28;20039;-66
2022/05/19 05:43:08;;;;;;;4.63;2.28;;;20.30;90.50;;;;;;5114343;28;20032;-66
2022/05/19 05:45:35;;;;;;;8.93;2.22;;;20.50;90.50;;;;;;5117192;28;20497;-67
2022/05/19 05:48:01;;;;;;;6.22;2.08;;;20.60;89.70;;;;;;5119700;28;20030;-67
2022/05/19 05:50:27;;;;;;;10.82;2.15;;;20.70;88.20;;;;;;5119070;28;20016;-67
2022/05/19 05:52:52;;;;;;;3.65;1.80;;;20.60;88.10;;;;;;5118745;28;20539;-67
2022/05/19 05:55:18;;;;;;;5.13;2.55;;;20.60;89.00;;;;;;5118396;28;20051;-67
2022/05/19 05:57:43;;;;;;;3.13;2.03;;;20.70;88.90;;;;;;5100136;28;20562;-67
2022/05/19 06:00:11;;;;;;;6.75;2.45;;;20.70;89.00;;;;;;5139037;22;20047;-66
2022/05/19 06:02:36;;;;;;;15.85;2.55;;;20.70;89.10;;;;;;5116357;28;20024;-67
2022/05/19 06:05:02;;;;;;;6.25;2.40;;;20.90;87.70;;;;;;5116602;28;20115;-65
2022/05/19 06:07:29;;;;;;;7.25;2.13;;;21.00;88.80;;;;;;5116631;28;20055;-66
2022/05/19 06:09:56;;;;;;;4.50;1.90;;;21.00;87.30;;;;;;5116611;28;20466;-66
2022/05/19 06:12:25;;;;;;;3.88;2.40;;;21.00;87.50;;;;;;5116407;28;20031;-66
2022/05/19 06:14:53;;;;;;;4.13;1.95;;;21.10;88.50;;;;;;5116451;28;20573;-66
2022/05/19 06:17:19;;;;;;;5.28;2.45;;;21.30;86.80;;;;;;5116955;28;20530;-66
2022/05/19 06:19:45;;;;;;;3.63;2.03;;;21.20;87.30;;;;;;5098330;28;20032;-67
2022/05/19 06:22:11;;;;;;;3.15;2.05;;;21.10;88.60;;;;;;5116209;28;20068;-67
2022/05/19 06:24:37;;;;;;;4.32;1.83;;;21.10;88.90;;;;;;5116603;28;20119;-65
2022/05/19 06:27:03;;;;;;;3.25;2.03;;;21.10;88.70;;;;;;5116519;28;20019;-66
2022/05/19 06:29:28;;;;;;;3.67;2.15;;;21.30;87.80;;;;;;5116539;28;20198;-66
2022/05/19 06:31:54;;;;;;;7.03;2.20;;;21.40;87.30;;;;;;5116719;28;20023;-66
2022/05/19 06:34:19;;;;;;;11.15;2.08;;;21.60;87.40;;;;;;5116624;28;20116;-65
2022/05/19 06:36:45;;;;;;;7.18;2.42;;;21.60;87.30;;;;;;5116185;28;20055;-66
2022/05/19 06:39:11;;;;;;;;;;;21.60;87.80;;;;;;5098624;28;20042;-66
2022/05/19 06:44:21;;;;;;;5.50;2.70;;;21.50;90.10;;;;;;5116540;28;20046;-65
2022/05/19 06:46:47;;;;;;;7.57;2.75;;;21.60;90.30;;;;;;5116219;28;20474;-66
2022/05/19 06:49:13;;;;;;;;;;;21.70;90.20;;;;;;5116199;28;20452;-65
2022/05/19 06:51:39;;;;;;;5.57;2.78;;;21.90;89.20;;;;;;5116325;28;19935;-66
2022/05/19 06:54:05;;;;;;;10.50;2.55;;;22.10;88.90;;;;;;5116342;28;20475;-67
2022/05/19 06:56:30;;;;;;;9.35;2.35;;;22.10;88.40;;;;;;5115321;28;20057;-67
2022/05/19 06:58:56;;;;;;;3.72;2.35;;;22.10;88.30;;;;;;5116530;28;20024;-66
2022/05/19 07:01:22;;;;;;;3.42;2.17;;;22.10;88.00;;;;;;5116344;28;20053;-65
2022/05/19 07:03:49;;;;;;;9.15;2.95;;;22.10;87.90;;;;;;5116351;28;20103;-65
2022/05/19 07:06:15;;;;;;;4.10;2.20;;;22.10;87.90;;;;;;5116389;28;20028;-67
2022/05/19 07:08:41;;;;;;;4.60;2.40;;;22.20;87.50;;;;;;5116302;28;20019;-67
2022/05/19 07:11:24;;;;;;;6.32;2.33;;;22.30;87.20;;;;;;5115523;28;20027;-66
2022/05/19 07:13:54;;;;;;;7.45;2.50;;;22.40;87.20;;;;;;5097810;28;20059;-66
2022/05/19 07:16:20;;;;;;;5.15;2.65;;;22.40;86.20;;;;;;5116295;28;20028;-67
2022/05/19 07:18:46;;;;;;;3.35;2.45;;;22.40;86.30;;;;;;5116103;28;20147;-66
2022/05/19 07:21:12;;;;;;;7.35;2.30;;;22.50;86.60;;;;;;5115776;28;20476;-66
2022/05/19 07:23:39;;;;;;;7.72;3.10;;;22.60;86.80;;;;;;5115335;28;20034;-66
2022/05/19 07:26:06;;;;;;;3.85;2.50;;;22.70;86.80;;;;;;5115309;28;20023;-65
2022/05/19 07:28:31;;;;;;;4.55;2.35;;;22.80;87.00;;;;;;5115441;28;20020;-67
2022/05/19 07:30:58;;;;;;;4.40;2.42;;;23.00;86.80;;;;;;5096698;28;20101;-67
2022/05/19 07:33:23;;;;;;;;;;;23.10;87.20;;;;;;5115472;28;20034;-67
2022/05/19 07:35:50;;;;;;;7.32;2.78;;;23.10;87.30;;;;;;5115097;28;20295;-67
2022/05/19 07:38:16;;;;;;;6.75;2.90;;;23.30;86.90;;;;;;5115025;28;20485;-67
2022/05/19 07:40:43;;;;;;;;;;;23.30;87.10;;;;;;5115149;28;20023;-67
2022/05/19 07:45:54;;;;;;;9.18;2.65;;;23.40;87.30;;;;;;5115009;28;20070;-68
2022/05/19 07:48:20;;;;;;;5.13;3.20;;;23.50;86.90;;;;;;5114757;28;20478;-67
2022/05/19 07:50:45;;;;;;;;;;;23.60;87.40;;;;;;5096539;28;20068;-67
2022/05/19 07:53:11;;;;;;;4.20;2.85;;;23.80;86.90;;;;;;5114512;28;19904;-67
2022/05/19 07:55:36;;;;;;;;;;;23.80;87.20;;;;;;5115013;28;20028;-67
2022/05/19 07:58:03;;;;;;;5.43;3.00;;;23.90;87.40;;;;;;5114455;28;19903;-67
2022/05/19 08:00:29;;;;;;;3.88;2.97;;;24.20;86.80;;;;;;5114205;28;20054;-67
2022/05/19 08:02:55;;;;;;;;;;;24.60;86.10;;;;;;5114929;28;20019;-66
2022/05/19 08:05:20;;;;;;;3.92;2.95;;;25.10;84.90;;;;;;5114465;28;20356;-67
2022/05/19 08:07:46;;;;;;;4.78;2.72;;;26.10;82.60;;;;;;5095976;28;20035;-67
2022/05/19 08:10:20;;;;;;;11.20;3.33;;;27.60;80.30;;;;;;5095899;28;20026;-67
2022/05/19 08:15:37;;;;;;;6.45;2.72;;;31.20;71.80;;;;;;5114943;28;20127;-67
2022/05/19 08:18:19;;;;;;;4.90;2.42;;;32.60;67.60;;;;;;5096484;28;20099;-67
2022/05/19 08:21:12;;;;;;;4.55;2.53;;;33.30;65.50;;;;;;5114407;28;20023;-67
2022/05/19 08:23:47;;;;;;;8.00;2.45;;;34.50;62.90;;;;;;5110266;28;20044;-67
2022/05/19 08:26:13;;;;;;;4.53;2.30;;;35.30;60.90;;;;;;5114484;28;20489;-67
2022/05/19 08:28:41;;;;;;;6.28;3.10;;;35.70;59.50;;;;;;5114120;28;20020;-67
2022/05/19 08:31:39;;;;;;;3.40;2.45;;;36.00;59.30;;;;;;5095457;28;20026;-67
2022/05/19 08:34:04;;;;;;;6.53;3.10;;;36.60;58.00;;;;;;5014829;28;20507;-67
2022/05/19 08:36:30;;;;;;;4.60;2.30;;;36.40;57.30;;;;;;5031282;28;20033;-67
2022/05/19 08:38:56;;;;;;;7.57;2.40;;;36.70;57.20;;;;;;5031559;28;20029;-67
2022/05/19 08:41:25;;;;;;;6.70;2.40;;;36.70;56.90;;;;;;5030924;28;20545;-67
2022/05/19 08:43:58;;;;;;;5.10;2.35;;;36.30;57.00;;;;;;5030933;28;20056;-67
2022/05/19 08:46:30;;;;;;;6.47;3.47;;;35.60;57.80;;;;;;5031008;28;20029;-67
2022/05/19 08:49:01;;;;;;;7.32;2.70;;;35.40;58.30;;;;;;5014477;28;20476;-67
2022/05/19 08:51:31;;;;;;;8.20;2.92;;;35.00;58.30;;;;;;5014355;28;20068;-67
2022/05/19 08:54:03;;;;;;;4.57;2.70;;;35.10;58.90;;;;;;5014349;28;20029;-67
2022/05/19 08:56:39;;;;;;;3.83;2.50;;;35.10;58.50;;;;;;5031103;28;20522;-67
2022/05/19 08:59:16;;;;;;;4.93;2.53;;;35.60;58.40;;;;;;5030942;28;20087;-67
2022/05/19 09:02:13;;;;;;;5.45;2.70;;;36.00;58.00;;;;;;5030744;28;20376;-67
2022/05/19 09:05:07;;;;;;;2.88;2.30;;;36.00;57.20;;;;;;5030825;28;20036;-67
2022/05/19 09:07:57;;;;;;;4.82;2.47;;;35.90;57.50;;;;;;5031135;28;20507;-67
2022/05/19 09:10:28;;;;;;;3.55;2.53;;;35.90;57.30;;;;;;5052755;28;20042;-67
2022/05/19 09:13:09;;;;;;;8.20;2.42;;;35.80;56.60;;;;;;5113631;28;20462;-67
2022/05/19 09:15:36;;;;;;;4.53;2.60;;;35.80;56.80;;;;;;5113466;28;20153;-67
2022/05/19 09:18:01;;;;;;;3.65;2.90;;;35.70;57.30;;;;;;5113545;28;20080;-68
2022/05/19 09:20:37;;;;;;;3.50;2.35;;;35.70;57.10;;;;;;5112820;28;20557;-68
2022/05/19 09:23:04;;;;;;;3.88;2.45;;;35.50;57.20;;;;;;5113529;28;20153;-68
2022/05/19 09:25:30;;;;;;;5.93;2.70;;;35.80;57.80;;;;;;5113339;28;20020;-68
2022/05/19 09:27:59;;;;;;;3.88;2.85;;;36.50;56.90;;;;;;5094961;28;20030;-67
2022/05/19 09:30:36;;;;;;;5.43;2.75;;;36.80;56.40;;;;;;5113186;28;20027;-67
2022/05/19 09:33:07;;;;;;;4.60;3.00;;;37.10;56.00;;;;;;5113408;28;20026;-67
2022/05/19 09:35:42;;;;;;;3.75;2.67;;;37.00;55.90;;;;;;5113471;28;20094;-66
2022/05/19 09:38:26;;;;;;;5.45;2.70;;;37.60;56.00;;;;;;5094731;28;20094;-66
2022/05/19 09:40:56;;;;;;;6.88;3.28;;;38.50;55.00;;;;;;5113111;28;20482;-67
2022/05/19 09:43:33;;;;;;;4.40;2.88;;;39.00;54.30;;;;;;5113101;28;20477;-67
2022/05/19 09:46:14;;;;;;;6.35;2.70;;;39.90;53.70;;;;;;5113111;28;20073;-66
2022/05/19 09:48:47;;;;;;;2.85;2.58;;;39.70;53.60;;;;;;5113075;28;20015;-66
2022/05/19 09:51:16;;;;;;;4.90;3.28;;;39.60;53.30;;;;;;5112967;28;20421;-66
2022/05/19 09:53:57;;;;;;;5.38;2.85;;;38.60;54.00;;;;;;5094741;28;20019;-67
2022/05/19 09:56:33;;;;;;;4.55;2.80;;;38.40;54.20;;;;;;5113292;28;20027;-67
2022/05/19 09:59:17;;;;;;;3.85;2.70;;;38.50;54.30;;;;;;5113214;28;20370;-67
2022/05/19 10:01:49;;;;;;;5.50;2.90;;;39.50;53.60;;;;;;5112787;28;20080;-67
2022/05/19 10:04:19;;;;;;;6.38;2.88;;;39.40;52.80;;;;;;5112875;28;20062;-66
2022/05/19 10:07:06;;;;;;;4.82;2.65;;;38.80;53.40;;;;;;5094436;28;20023;-67
2022/05/19 10:09:39;;;;;;;5.43;2.40;;;39.70;53.20;;;;;;5112930;28;20028;-67
2022/05/19 10:12:11;;;;;;;4.78;2.47;;;39.30;52.90;;;;;;5112783;28;20026;-67
2022/05/19 10:14:40;;;;;;;5.75;2.72;;;39.70;53.30;;;;;;5094431;28;20026;-67
2022/05/19 10:17:39;;;;;;;4.75;2.80;;;39.40;53.00;;;;;;5112691;28;20024;-67
2022/05/19 10:20:18;;;;;;;6.47;3.00;;;38.80;53.50;;;;;;5094158;28;20385;-66
2022/05/19 10:22:54;;;;;;;6.50;2.30;;;38.60;53.70;;;;;;5112501;28;20027;-66
2022/05/19 10:25:36;;;;;;;4.05;2.60;;;37.90;54.30;;;;;;5112518;28;20035;-66
2022/05/19 10:31:18;;;;;;;5.82;2.60;;;37.20;55.10;;;;;;5112692;28;20031;-67
2022/05/19 10:33:59;;;;;;;9.07;2.55;;;37.60;55.10;;;;;;5116726;28;20501;-67
2022/05/19 10:36:55;;;;;;;7.53;2.97;;;38.50;54.30;;;;;;5116195;28;20027;-67
2022/05/19 10:39:41;;;;;;;8.30;2.83;;;38.90;53.60;;;;;;5116336;28;20024;-67
2022/05/19 10:42:36;;;;;;;2.72;2.33;;;38.30;53.50;;;;;;5116201;28;20035;-66
2022/05/19 10:45:23;;;;;;;10.30;3.03;;;38.60;54.00;;;;;;5116135;28;20026;-66
2022/05/19 10:48:01;;;;;;;9.10;3.00;;;38.60;53.80;;;;;;5116019;28;20548;-66
2022/05/19 10:50:26;;;;;;;31.05;4.15;;;38.90;53.60;;;;;;5115960;28;20072;-66
2022/05/19 10:53:24;;;;;;;8.98;2.60;;;39.50;53.40;;;;;;5116115;28;20122;-66
2022/05/19 10:56:02;;;;;;;5.53;2.72;;;39.70;52.10;;;;;;5097564;28;20031;-67
2022/05/19 10:58:40;;;;;;;6.85;3.45;;;40.10;52.50;;;;;;5116255;28;20023;-67
2022/05/19 11:01:35;;;;;;;5.85;3.00;;;40.30;52.60;;;;;;5115888;28;20054;-68
2022/05/19 11:04:05;;;;;;;5.30;2.90;;;39.40;52.50;;;;;;5097563;28;20076;-67
2022/05/19 11:06:47;;;;;;;6.60;2.83;;;38.60;53.60;;;;;;5115872;28;20092;-67
2022/05/19 11:09:21;;;;;;;4.40;2.60;;;37.60;54.90;;;;;;5115898;28;20454;-67
2022/05/19 11:12:27;;;;;;;3.65;2.70;;;36.30;56.30;;;;;;5115546;28;20030;-67
2022/05/19 11:15:11;;;;;;;7.07;3.17;;;35.10;57.90;;;;;;5115733;28;20057;-67
2022/05/19 11:18:01;;;;;;;6.60;3.40;;;34.20;58.50;;;;;;5097670;28;20435;-67
2022/05/19 11:21:05;;;;;;;6.05;3.08;;;33.70;59.20;;;;;;5097146;28;20028;-67
2022/05/19 11:23:47;;;;;;;4.50;2.80;;;33.20;59.60;;;;;;5033027;28;20041;-66
2022/05/19 11:26:34;;;;;;;4.97;2.70;;;33.10;60.00;;;;;;5032897;28;20033;-66
2022/05/19 11:29:14;;;;;;;5.10;3.15;;;33.00;60.20;;;;;;5033082;28;20033;-66
2022/05/19 11:31:54;;;;;;;5.82;3.08;;;32.70;60.90;;;;;;5032394;28;20087;-66
2022/05/19 11:34:39;;;;;;;7.20;4.03;;;32.60;61.30;;;;;;5032714;28;20033;-71
2022/05/19 11:37:15;;;;;;;8.20;3.40;;;32.30;61.70;;;;;;5032565;28;20033;-66
2022/05/19 11:39:48;;;;;;;6.30;2.60;;;32.00;62.10;;;;;;5016181;28;20134;-66
2022/05/19 11:42:32;;;;;;;4.82;3.00;;;32.00;61.20;;;;;;5015314;28;20475;-66
2022/05/19 11:44:59;;;;;;;5.57;2.80;;;32.00;61.40;;;;;;5032817;28;20124;-66
2022/05/19 11:56:00;;;;;;;4.57;2.70;;;32.10;61.70;;;;;;5031922;28;20029;-66
2022/05/19 11:58:28;;;;;;;6.63;2.67;;;32.00;61.40;;;;;;5031840;28;20034;-66
2022/05/19 12:01:13;;;;;;;3.85;2.92;;;32.00;61.50;;;;;;5100217;28;20130;-67
2022/05/19 12:04:00;;;;;;;5.95;3.10;;;32.00;62.40;;;;;;5114470;28;20160;-67
2022/05/19 12:06:35;;;;;;;7.35;2.97;;;31.90;62.10;;;;;;5114272;28;20019;-68
2022/05/19 12:09:16;;;;;;;3.95;3.15;;;31.80;61.80;;;;;;5095758;28;20027;-68
2022/05/19 12:11:45;;;;;;;7.07;3.20;;;31.70;61.70;;;;;;5096772;28;20024;-68
2022/05/19 12:14:11;;;;;;;7.90;2.95;;;31.70;61.80;;;;;;5114463;28;20011;-68
2022/05/19 12:16:55;;;;;;;6.55;2.83;;;31.80;61.50;;;;;;5095525;28;20030;-68
2022/05/19 12:19:47;;;;;;;5.05;2.58;;;31.80;61.60;;;;;;5113970;28;20491;-68
2022/05/19 12:22:44;;;;;;;6.55;3.58;;;31.70;60.70;;;;;;5114029;28;20053;-66
2022/05/19 12:25:23;;;;;;;9.00;5.25;;;31.70;60.90;;;;;;5113961;28;20020;-67
2022/05/19 12:28:05;;;;;;;6.00;2.67;;;31.90;60.90;;;;;;5114518;28;20051;-66
2022/05/19 12:33:29;;;;;;;8.82;2.90;;;32.00;59.70;;;;;;5115841;28;20065;-66
2022/05/19 12:36:11;;;;;;;5.65;2.88;;;31.90;59.50;;;;;;5116475;28;20048;-66
2022/05/19 12:38:43;;;;;;;7.72;3.10;;;31.90;59.60;;;;;;5114487;28;20498;-67
2022/05/19 12:41:32;;;;;;;5.20;2.63;;;32.00;58.80;;;;;;5114618;28;20390;-67
2022/05/19 12:44:38;;;;;;;8.95;3.40;;;32.10;58.60;;;;;;5113842;28;20410;-67
2022/05/19 12:47:16;;;;;;;9.32;2.67;;;32.10;58.50;;;;;;5114168;28;20024;-67
2022/05/19 12:50:10;;;;;;;5.53;2.97;;;32.00;58.10;;;;;;5117091;28;20106;-72
2022/05/19 12:52:53;;;;;;;5.20;2.88;;;32.00;58.60;;;;;;5114518;28;20507;-66
2022/05/19 12:55:22;;;;;;;5.13;2.78;;;32.00;58.70;;;;;;5113180;28;20011;-69
2022/05/19 12:57:49;;;;;;;8.23;3.22;;;32.00;58.60;;;;;;5095129;28;20031;-69
2022/05/19 13:00:23;;;;;;;5.93;3.13;;;32.10;58.50;;;;;;5094767;28;20394;-69
2022/05/19 13:03:11;;;;;;;8.18;2.92;;;32.10;58.10;;;;;;5113533;28;20024;-68
2022/05/19 13:05:53;;;;;;;6.15;2.83;;;32.10;57.80;;;;;;5113658;28;20023;-70
2022/05/19 13:08:37;;;;;;;8.02;3.03;;;32.10;58.20;;;;;;5113505;28;20027;-69
2022/05/19 13:11:13;;;;;;;5.40;3.00;;;32.10;58.50;;;;;;5094875;28;20016;-69
2022/05/19 13:13:50;;;;;;;3.35;2.67;;;32.10;58.90;;;;;;5113783;28;20019;-69
2022/05/19 13:16:28;;;;;;;7.63;2.95;;;32.10;58.90;;;;;;5095597;28;20034;-69
2022/05/19 13:19:06;;;;;;;7.28;3.25;;;32.20;58.80;;;;;;5113454;28;20030;-69
2022/05/19 13:21:36;;;;;;;7.03;2.70;;;32.20;58.90;;;;;;5113648;28;20418;-69
2022/05/19 13:24:07;;;;;;;7.15;3.22;;;32.20;58.90;;;;;;5113414;28;20043;-69
2022/05/19 13:26:36;;;;;;;7.10;3.10;;;32.20;59.00;;;;;;5113634;28;20020;-70
2022/05/19 13:32:04;;;;;;;5.25;3.05;;;32.20;58.90;;;;;;5113326;28;20069;-68
2022/05/19 13:34:49;;;;;;;9.05;3.55;;;32.30;59.00;;;;;;5112938;28;20020;-68
2022/05/19 13:37:29;;;;;;;8.05;3.33;;;32.30;59.10;;;;;;5113119;28;20020;-68
2022/05/19 13:40:17;;;;;;;5.57;2.83;;;32.40;59.50;;;;;;5113177;28;20020;-67
2022/05/19 13:42:52;;;;;;;4.82;2.88;;;32.40;59.10;;;;;;5113308;28;20487;-66